createdAt,value
2023-06-29T00:01:58.537Z,97825.94
2023-06-29T00:04:27.334Z,97830.22
2023-06-29T00:06:55.587Z,97827.91
2023-06-29T00:09:25.078Z,97834.25
2023-06-29T00:11:51.698Z,97829.97
2023-06-29T00:14:18.215Z,97827.66
2023-06-29T00:16:44.880Z,97824.56
2023-06-29T00:19:13.055Z,97820.75
2023-06-29T00:21:40.024Z,97829.66
2023-06-29T00:24:07.312Z,97819.25
2023-06-29T00:26:34.412Z,97814.22
2023-06-29T00:29:01.207Z,97811.06
2023-06-29T00:31:30.179Z,97815.75
2023-06-29T00:33:56.700Z,97815.06
2023-06-29T00:36:23.360Z,97820.75
2023-06-29T00:38:50.100Z,97822.88
2023-06-29T00:41:16.635Z,97827.53
2023-06-29T00:43:44.203Z,97829.63
2023-06-29T00:46:13.016Z,97814.28
2023-06-29T00:48:40.120Z,97822.97
2023-06-29T00:51:07.004Z,97820.72
2023-06-29T00:53:33.711Z,97828.09
2023-06-29T00:56:02.999Z,97820.22
2023-06-29T00:58:30.416Z,97817.50
2023-06-29T01:00:59.955Z,97817.50
2023-06-29T01:03:29.252Z,97813.31
2023-06-29T01:06:02.042Z,97821.00
2023-06-29T01:08:34.290Z,97825.41
2023-06-29T01:11:04.697Z,97817.44
2023-06-29T01:13:32.423Z,97825.75
2023-06-29T01:16:00.526Z,97823.00
2023-06-29T01:18:31.799Z,97826.13
2023-06-29T01:20:59.907Z,97832.72
2023-06-29T01:23:29.159Z,97823.25
2023-06-29T01:25:56.304Z,97824.09
2023-06-29T01:28:23.211Z,97823.38
2023-06-29T01:30:51.995Z,97825.75
2023-06-29T01:33:24.441Z,97819.94
2023-06-29T01:35:57.981Z,97818.75
2023-06-29T01:38:31.067Z,97816.03
2023-06-29T01:40:59.485Z,97813.28
2023-06-29T01:43:29.304Z,97809.34
2023-06-29T01:45:57.728Z,97813.19
2023-06-29T01:48:24.801Z,97817.91
2023-06-29T01:50:53.101Z,97811.69
2023-06-29T01:53:19.663Z,97810.56
2023-06-29T01:55:46.305Z,97819.50
2023-06-29T01:58:13.124Z,97814.47
2023-06-29T02:03:06.459Z,97820.38
2023-06-29T02:05:33.127Z,97811.47
2023-06-29T02:08:00.125Z,97817.16
2023-06-29T02:10:26.935Z,97818.84
2023-06-29T02:12:55.266Z,97807.78
2023-06-29T02:15:21.915Z,97806.88
2023-06-29T02:17:48.479Z,97803.94
2023-06-29T02:20:15.254Z,97805.53
2023-06-29T02:22:41.981Z,97809.31
2023-06-29T02:25:12.567Z,97802.59
2023-06-29T02:27:42.620Z,97804.59
2023-06-29T02:30:09.677Z,97804.41
2023-06-29T02:32:36.431Z,97800.69
2023-06-29T02:35:03.019Z,97799.53
2023-06-29T02:37:29.780Z,97798.91
2023-06-29T02:39:56.324Z,97801.03
2023-06-29T02:42:23.500Z,97790.31
2023-06-29T02:44:50.019Z,97797.03
2023-06-29T02:47:16.618Z,97804.00
2023-06-29T02:49:45.436Z,97797.25
2023-06-29T02:52:12.179Z,97795.56
2023-06-29T02:54:38.677Z,97794.38
2023-06-29T02:57:05.476Z,97793.25
2023-06-29T02:59:37.091Z,97797.56
2023-06-29T03:02:03.745Z,97792.88
2023-06-29T03:04:30.314Z,97801.03
2023-06-29T03:06:56.905Z,97798.91
2023-06-29T03:09:23.505Z,97792.84
2023-06-29T03:11:52.001Z,97796.22
2023-06-29T03:14:18.698Z,97797.31
2023-06-29T03:16:45.234Z,97795.66
2023-06-29T03:19:12.133Z,97799.13
2023-06-29T03:21:38.648Z,97799.81
2023-06-29T03:24:07.379Z,97807.22
2023-06-29T03:26:33.933Z,97807.44
2023-06-29T03:29:00.474Z,97808.16
2023-06-29T03:31:27.452Z,97806.97
2023-06-29T03:33:54.053Z,97807.69
2023-06-29T03:36:20.746Z,97804.13
2023-06-29T03:38:47.377Z,97802.16
2023-06-29T03:41:13.886Z,97799.84
2023-06-29T03:43:40.702Z,97797.53
2023-06-29T03:46:07.220Z,97797.84
2023-06-29T03:48:33.916Z,97798.72
2023-06-29T03:51:00.999Z,97800.47
2023-06-29T03:53:27.565Z,97801.88
2023-06-29T03:55:54.104Z,97802.97
2023-06-29T03:58:20.773Z,97800.91
2023-06-29T04:00:47.271Z,97793.72
2023-06-29T04:03:13.916Z,97800.91
2023-06-29T04:05:40.619Z,97793.91
2023-06-29T04:08:08.045Z,97787.19
2023-06-29T04:10:34.759Z,97789.53
2023-06-29T04:13:01.718Z,97790.03
2023-06-29T04:15:28.608Z,97795.47
2023-06-29T04:17:55.160Z,97794.56
2023-06-29T04:20:21.735Z,97791.31
2023-06-29T04:22:50.200Z,97787.66
2023-06-29T04:25:16.902Z,97783.38
2023-06-29T04:27:43.900Z,97791.09
2023-06-29T04:30:10.749Z,97796.00
2023-06-29T04:32:37.375Z,97782.97
2023-06-29T04:35:07.054Z,97774.84
2023-06-29T04:37:42.288Z,97781.44
2023-06-29T04:40:11.046Z,97781.06
2023-06-29T04:42:47.686Z,97783.66
2023-06-29T04:45:19.166Z,97787.56
2023-06-29T04:47:47.246Z,97781.06
2023-06-29T04:50:14.661Z,97779.75
2023-06-29T04:52:41.369Z,97784.91
2023-06-29T04:55:09.254Z,97790.53
2023-06-29T04:57:36.163Z,97789.97
2023-06-29T05:00:07.708Z,97781.50
2023-06-29T05:02:34.436Z,97779.28
2023-06-29T05:05:01.038Z,97778.28
2023-06-29T05:07:27.660Z,97771.72
2023-06-29T05:09:54.551Z,97766.38
2023-06-29T05:12:21.032Z,97760.25
2023-06-29T05:14:47.523Z,97761.50
2023-06-29T05:17:16.365Z,97764.50
2023-06-29T05:19:42.912Z,97763.50
2023-06-29T05:22:15.305Z,97762.16
2023-06-29T05:24:42.970Z,97763.34
2023-06-29T05:27:09.936Z,97763.16
2023-06-29T05:29:38.394Z,97757.97
2023-06-29T05:32:05.864Z,97760.41
2023-06-29T05:34:33.905Z,97766.44
2023-06-29T05:37:00.416Z,97765.41
2023-06-29T05:39:28.421Z,97764.88
2023-06-29T05:41:55.144Z,97757.84
2023-06-29T05:44:21.682Z,97761.56
2023-06-29T05:46:48.279Z,97760.91
2023-06-29T05:49:14.788Z,97760.38
2023-06-29T05:51:43.407Z,97760.78
2023-06-29T05:54:10.077Z,97770.69
2023-06-29T05:56:36.584Z,97769.78
2023-06-29T05:59:06.710Z,97763.50
2023-06-29T06:01:33.350Z,97757.25
2023-06-29T06:04:00.332Z,97757.69
2023-06-29T06:06:27.065Z,97759.53
2023-06-29T06:08:54.086Z,97766.81
2023-06-29T06:11:20.854Z,97764.31
2023-06-29T06:13:47.588Z,97763.41
2023-06-29T06:16:14.231Z,97759.28
2023-06-29T06:18:40.922Z,97756.06
2023-06-29T06:21:07.532Z,97759.44
2023-06-29T06:23:34.723Z,97762.09
2023-06-29T06:26:02.160Z,97772.72
2023-06-29T06:28:29.093Z,97770.19
2023-06-29T06:30:55.660Z,97781.72
2023-06-29T06:33:22.207Z,97789.97
2023-06-29T06:35:50.838Z,97781.81
2023-06-29T06:38:17.423Z,97779.84
2023-06-29T06:40:44.472Z,97780.56
2023-06-29T06:43:11.265Z,97777.53
2023-06-29T06:45:37.773Z,97763.13
2023-06-29T06:48:09.366Z,97762.06
2023-06-29T06:50:38.615Z,97763.88
2023-06-29T06:53:05.451Z,97762.66
2023-06-29T06:55:31.983Z,97768.47
2023-06-29T06:57:58.500Z,97753.78
2023-06-29T07:00:27.932Z,97752.94
2023-06-29T07:02:54.518Z,97757.34
2023-06-29T07:05:21.103Z,97756.91
2023-06-29T07:07:47.673Z,97753.75
2023-06-29T07:10:14.344Z,97754.72
2023-06-29T07:12:40.975Z,97762.63
2023-06-29T07:15:07.982Z,97758.63
2023-06-29T07:17:34.543Z,97755.09
2023-06-29T07:25:02.164Z,97743.53
2023-06-29T07:27:28.755Z,97736.22
2023-06-29T07:29:55.367Z,97737.41
2023-06-29T07:32:21.908Z,97742.81
2023-06-29T07:34:48.520Z,97731.88
2023-06-29T07:37:15.370Z,97730.72
2023-06-29T07:39:41.930Z,97727.09
2023-06-29T07:42:08.464Z,97724.41
2023-06-29T07:44:38.297Z,97727.97
2023-06-29T07:47:05.317Z,97725.09
2023-06-29T07:49:31.980Z,97729.28
2023-06-29T07:51:59.416Z,97735.66
2023-06-29T07:54:25.917Z,97719.22
2023-06-29T07:59:22.117Z,97711.56
2023-06-29T08:01:51.400Z,97714.97
2023-06-29T08:07:10.130Z,97717.91
2023-06-29T08:09:38.179Z,97717.75
2023-06-29T08:12:05.324Z,97713.63
2023-06-29T08:14:33.960Z,97714.91
2023-06-29T08:17:00.933Z,97715.59
2023-06-29T08:19:31.318Z,97714.59
2023-06-29T08:21:59.725Z,97712.81
2023-06-29T08:24:26.231Z,97712.81
2023-06-29T08:26:52.739Z,97712.44
2023-06-29T08:29:21.574Z,97704.16
2023-06-29T08:31:48.458Z,97706.47
2023-06-29T08:34:15.239Z,97702.09
2023-06-29T08:36:41.868Z,97696.28
2023-06-29T08:39:09.748Z,97700.72
2023-06-29T08:41:36.705Z,97694.56
2023-06-29T08:44:05.599Z,97689.63
2023-06-29T08:46:33.939Z,97699.44
2023-06-29T08:49:01.685Z,97695.28
2023-06-29T08:51:30.031Z,97701.81
2023-06-29T08:53:57.518Z,97690.63
2023-06-29T08:56:24.853Z,97688.66
2023-06-29T08:58:52.565Z,97688.22
2023-06-29T09:01:19.924Z,97696.50
2023-06-29T09:03:47.529Z,97687.09
2023-06-29T09:06:15.758Z,97682.84
2023-06-29T09:08:42.712Z,97687.44
2023-06-29T09:11:09.482Z,97675.44
2023-06-29T09:13:36.024Z,97676.88
2023-06-29T09:16:04.744Z,97676.03
2023-06-29T09:18:33.673Z,97670.34
2023-06-29T09:21:04.452Z,97662.78
2023-06-29T09:23:33.205Z,97675.09
2023-06-29T09:25:59.823Z,97665.50
2023-06-29T09:28:27.378Z,97667.28
2023-06-29T09:30:54.369Z,97662.47
2023-06-29T09:33:26.060Z,97664.03
2023-06-29T09:35:53.228Z,97664.81
2023-06-29T09:38:21.179Z,97665.91
2023-06-29T09:40:55.260Z,97675.31
2023-06-29T09:43:26.399Z,97659.00
2023-06-29T09:45:58.507Z,97671.19
2023-06-29T09:50:55.840Z,97662.84
2023-06-29T09:53:30.625Z,97669.25
2023-06-29T09:55:59.794Z,97659.38
2023-06-29T09:58:29.193Z,97656.84
2023-06-29T10:00:59.861Z,97668.25
2023-06-29T10:03:28.665Z,97663.69
2023-06-29T10:06:18.179Z,97656.59
2023-06-29T10:08:51.009Z,97657.63
2023-06-29T10:11:18.409Z,97655.59
2023-06-29T10:13:50.220Z,97649.50
2023-06-29T10:16:20.498Z,97651.03
2023-06-29T10:18:48.573Z,97649.16
2023-06-29T10:21:15.982Z,97638.16
2023-06-29T10:23:45.639Z,97644.97
2023-06-29T10:26:13.688Z,97642.16
2023-06-29T10:28:40.764Z,97643.00
2023-06-29T10:31:07.368Z,97634.50
2023-06-29T10:33:46.787Z,97636.81
2023-06-29T10:36:15.114Z,97638.63
2023-06-29T10:38:41.916Z,97641.41
2023-06-29T10:41:08.567Z,97636.34
2023-06-29T10:43:55.379Z,97632.28
2023-06-29T10:46:48.098Z,97627.72
2023-06-29T10:49:22.272Z,97621.38
2023-06-29T10:52:05.505Z,97630.78
2023-06-29T10:54:32.353Z,97628.50
2023-06-29T10:57:00.744Z,97622.13
2023-06-29T10:59:28.715Z,97620.63
2023-06-29T11:01:55.697Z,97622.63
2023-06-29T11:04:25.665Z,97618.59
2023-06-29T11:06:52.633Z,97618.59
2023-06-29T11:09:20.752Z,97615.06
2023-06-29T11:11:49.675Z,97616.06
2023-06-29T11:14:19.056Z,97618.81
2023-06-29T11:16:45.726Z,97615.81
2023-06-29T11:19:13.675Z,97608.94
2023-06-29T11:24:30.619Z,97614.50
2023-06-29T11:26:59.363Z,97607.16
2023-06-29T11:29:32.356Z,97615.69
2023-06-29T11:32:01.979Z,97611.94
2023-06-29T11:34:28.601Z,97610.44
2023-06-29T11:37:15.384Z,97605.59
2023-06-29T11:39:42.461Z,97602.06
2023-06-29T11:42:10.215Z,97598.28
2023-06-29T11:44:36.937Z,97593.44
2023-06-29T11:47:18.502Z,97594.25
2023-06-29T11:49:51.805Z,97588.47
2023-06-29T11:52:22.875Z,97585.66
2023-06-29T11:54:51.866Z,97587.97
2023-06-29T11:57:19.095Z,97582.38
2023-06-29T11:59:46.617Z,97584.94
2023-06-29T12:02:15.093Z,97580.63
2023-06-29T12:04:58.064Z,97579.56
2023-06-29T12:07:41.271Z,97584.06
2023-06-29T12:10:14.038Z,97579.56
2023-06-29T12:12:44.507Z,97567.19
2023-06-29T12:15:21.037Z,97583.91
2023-06-29T12:20:24.053Z,97569.47
2023-06-29T12:22:54.585Z,97579.84
2023-06-29T12:25:26.633Z,97568.47
2023-06-29T12:27:53.228Z,97569.22
2023-06-29T12:30:22.625Z,97574.28
2023-06-29T12:32:50.656Z,97568.22
2023-06-29T12:35:18.712Z,97577.03
2023-06-29T12:37:47.634Z,97570.50
2023-06-29T12:40:16.415Z,97562.63
2023-06-29T12:42:43.219Z,97569.16
2023-06-29T12:45:10.097Z,97561.06
2023-06-29T12:47:37.323Z,97564.84
2023-06-29T12:50:04.884Z,97565.59
2023-06-29T12:52:31.704Z,97555.19
2023-06-29T12:54:58.446Z,97561.56
2023-06-29T12:57:30.004Z,97560.59
2023-06-29T12:59:58.026Z,97556.75
2023-06-29T13:02:27.764Z,97546.84
2023-06-29T13:04:54.522Z,97540.25
2023-06-29T13:07:23.709Z,97548.84
2023-06-29T13:09:52.956Z,97542.00
2023-06-29T13:12:20.716Z,97547.59
2023-06-29T13:14:48.629Z,97549.34
2023-06-29T13:17:15.447Z,97545.50
2023-06-29T13:19:43.823Z,97544.50
2023-06-29T13:22:10.493Z,97545.00
2023-06-29T13:24:37.470Z,97533.09
2023-06-29T13:27:04.938Z,97540.22
2023-06-29T13:29:32.596Z,97534.16
2023-06-29T13:31:59.189Z,97538.50
2023-06-29T13:34:28.143Z,97533.13
2023-06-29T13:36:55.384Z,97540.00
2023-06-29T13:39:22.253Z,97532.41
2023-06-29T13:41:50.751Z,97530.44
2023-06-29T13:44:17.801Z,97531.22
2023-06-29T13:46:47.882Z,97535.03
2023-06-29T13:49:18.475Z,97532.72
2023-06-29T13:51:49.260Z,97533.25
2023-06-29T13:54:16.786Z,97531.00
2023-06-29T13:56:45.045Z,97530.19
2023-06-29T13:59:11.749Z,97528.97
2023-06-29T14:01:40.763Z,97520.09
2023-06-29T14:04:10.198Z,97521.84
2023-06-29T14:06:42.355Z,97515.03
2023-06-29T14:09:12.437Z,97521.09
2023-06-29T14:11:39.349Z,97527.41
2023-06-29T14:14:06.304Z,97515.31
2023-06-29T14:16:33.295Z,97516.56
2023-06-29T14:19:02.661Z,97520.59
2023-06-29T14:21:29.579Z,97514.03
2023-06-29T14:23:56.686Z,97517.31
2023-06-29T14:26:23.866Z,97513.00
2023-06-29T14:28:52.402Z,97513.78
2023-06-29T14:31:19.258Z,97504.88
2023-06-29T14:33:46.460Z,97508.19
2023-06-29T14:36:13.503Z,97505.66
2023-06-29T14:38:40.046Z,97506.91
2023-06-29T14:41:06.634Z,97502.63
2023-06-29T14:43:36.625Z,97498.31
2023-06-29T14:46:03.243Z,97500.59
2023-06-29T14:48:29.819Z,97489.72
2023-06-29T14:50:56.605Z,97491.72
2023-06-29T14:53:24.102Z,97487.94
2023-06-29T14:55:51.204Z,97488.44
2023-06-29T14:58:20.047Z,97484.41
2023-06-29T15:00:46.612Z,97483.38
2023-06-29T15:03:13.559Z,97472.44
2023-06-29T15:05:40.379Z,97474.16
2023-06-29T15:08:06.921Z,97469.59
2023-06-29T15:10:33.674Z,97466.56
2023-06-29T15:13:00.213Z,97477.00
2023-06-29T15:15:26.831Z,97464.78
2023-06-29T15:17:53.575Z,97463.28
2023-06-29T15:20:22.374Z,97456.44
2023-06-29T15:22:49.007Z,97457.16
2023-06-29T15:25:15.688Z,97449.03
2023-06-29T15:27:42.288Z,97447.72
2023-06-29T15:30:09.404Z,97447.28
2023-06-29T15:32:36.476Z,97443.97
2023-06-29T15:35:04.365Z,97451.06
2023-06-29T15:37:34.013Z,97442.72
2023-06-29T15:40:00.955Z,97439.16
2023-06-29T15:42:29.415Z,97437.91
2023-06-29T15:44:59.994Z,97435.38
2023-06-29T15:47:28.398Z,97436.19
2023-06-29T15:49:55.156Z,97432.69
2023-06-29T15:52:24.036Z,97429.31
2023-06-29T15:54:50.572Z,97426.47
2023-06-29T15:57:17.194Z,97420.22
2023-06-29T15:59:47.518Z,97413.59
2023-06-29T16:02:14.137Z,97417.09
2023-06-29T16:04:40.710Z,97420.91
2023-06-29T16:07:08.750Z,97413.78
2023-06-29T16:09:38.435Z,97417.56
2023-06-29T16:12:06.153Z,97422.16
2023-06-29T16:14:33.319Z,97417.44
2023-06-29T16:17:00.506Z,97414.44
2023-06-29T16:19:27.555Z,97414.19
2023-06-29T16:21:54.156Z,97409.16
2023-06-29T16:24:20.691Z,97418.28
2023-06-29T16:26:47.917Z,97425.66
2023-06-29T16:29:14.536Z,97420.34
2023-06-29T16:31:42.669Z,97416.03
2023-06-29T16:34:11.521Z,97415.03
2023-06-29T16:36:42.381Z,97421.34
2023-06-29T16:39:09.011Z,97418.31
2023-06-29T16:41:35.592Z,97420.63
2023-06-29T16:44:02.189Z,97422.88
2023-06-29T16:46:28.801Z,97422.38
2023-06-29T16:49:00.116Z,97424.66
2023-06-29T16:51:29.301Z,97424.38
2023-06-29T16:53:56.580Z,97431.25
2023-06-29T16:56:23.169Z,97425.19
2023-06-29T16:58:50.252Z,97430.22
2023-06-29T17:01:17.086Z,97426.66
2023-06-29T17:03:45.340Z,97427.16
2023-06-29T17:06:12.104Z,97423.41
2023-06-29T17:08:41.136Z,97423.38
2023-06-29T17:11:08.408Z,97431.75
2023-06-29T17:13:35.400Z,97436.34
2023-06-29T17:16:04.359Z,97434.06
2023-06-29T17:18:30.930Z,97437.09
2023-06-29T17:20:57.453Z,97428.72
2023-06-29T17:23:24.009Z,97428.75
2023-06-29T17:25:51.643Z,97428.22
2023-06-29T17:28:21.313Z,97426.97
2023-06-29T17:30:48.193Z,97426.72
2023-06-29T17:33:15.568Z,97430.25
2023-06-29T17:35:46.730Z,97432.78
2023-06-29T17:38:13.507Z,97423.69
2023-06-29T17:40:43.719Z,97415.84
2023-06-29T17:43:10.284Z,97429.75
2023-06-29T17:45:36.800Z,97424.94
2023-06-29T17:48:03.660Z,97430.50
2023-06-29T17:50:30.491Z,97430.28
2023-06-29T17:52:57.044Z,97423.94
2023-06-29T17:55:23.560Z,97427.69
2023-06-29T17:57:50.127Z,97423.91
2023-06-29T18:00:17.273Z,97425.41
2023-06-29T18:02:44.120Z,97423.13
2023-06-29T18:05:11.257Z,97425.41
2023-06-29T18:07:38.120Z,97418.81
2023-06-29T18:10:06.162Z,97421.34
2023-06-29T18:12:36.886Z,97419.28
2023-06-29T18:15:05.797Z,97425.56
2023-06-29T18:17:35.647Z,97430.31
2023-06-29T18:20:02.431Z,97429.75
2023-06-29T18:22:31.372Z,97443.34
2023-06-29T18:24:59.459Z,97435.94
2023-06-29T18:27:27.825Z,97438.19
2023-06-29T18:29:55.033Z,97443.44
2023-06-29T18:32:21.566Z,97448.69
2023-06-29T18:34:52.683Z,97444.84
2023-06-29T18:37:19.234Z,97439.25
2023-06-29T18:39:45.728Z,97440.19
2023-06-29T18:42:12.323Z,97439.13
2023-06-29T18:44:43.959Z,97448.16
2023-06-29T18:47:14.916Z,97441.94
2023-06-29T18:49:51.530Z,97437.25
2023-06-29T18:52:20.183Z,97439.44
2023-06-29T18:54:47.037Z,97439.81
2023-06-29T18:57:16.024Z,97436.22
2023-06-29T18:59:43.907Z,97434.66
2023-06-29T19:02:10.872Z,97433.06
2023-06-29T19:04:37.451Z,97435.28
2023-06-29T19:07:04.526Z,97433.22
2023-06-29T19:09:34.912Z,97438.22
2023-06-29T19:12:02.272Z,97439.13
2023-06-29T19:14:28.841Z,97441.09
2023-06-29T19:16:58.529Z,97445.81
2023-06-29T19:19:25.906Z,97435.41
2023-06-29T19:21:53.547Z,97442.91
2023-06-29T19:24:22.120Z,97448.31
2023-06-29T19:26:48.876Z,97440.25
2023-06-29T19:29:15.449Z,97448.19
2023-06-29T19:31:44.708Z,97451.72
2023-06-29T19:34:12.205Z,97451.16
2023-06-29T19:36:39.262Z,97448.69
2023-06-29T19:39:07.556Z,97455.81
2023-06-29T19:41:34.466Z,97457.38
2023-06-29T19:44:01.164Z,97452.59
2023-06-29T19:46:27.853Z,97450.75
2023-06-29T19:48:54.567Z,97453.94
2023-06-29T19:51:21.335Z,97467.28
2023-06-29T19:53:47.921Z,97455.94
2023-06-29T19:56:14.574Z,97466.25
2023-06-29T19:58:41.183Z,97457.44
2023-06-29T20:01:07.680Z,97455.66
2023-06-29T20:03:34.305Z,97454.91
2023-06-29T20:06:01.046Z,97461.41
2023-06-29T20:08:27.598Z,97457.59
2023-06-29T20:10:57.647Z,97461.59
2023-06-29T20:13:24.313Z,97455.78
2023-06-29T20:15:51.064Z,97456.25
2023-06-29T20:18:17.895Z,97460.44
2023-06-29T20:20:44.449Z,97469.44
2023-06-29T20:23:12.836Z,97473.81
2023-06-29T20:25:39.691Z,97472.69
2023-06-29T20:28:06.260Z,97471.25
2023-06-29T20:30:32.869Z,97464.56
2023-06-29T20:32:59.474Z,97473.22
2023-06-29T20:35:28.156Z,97476.53
2023-06-29T20:37:55.804Z,97477.66
2023-06-29T20:40:22.713Z,97485.38
2023-06-29T20:42:49.202Z,97479.28
2023-06-29T20:45:20.255Z,97481.28
2023-06-29T20:47:46.822Z,97494.34
2023-06-29T20:50:13.475Z,97491.75
2023-06-29T20:52:40.288Z,97484.41
2023-06-29T20:55:09.129Z,97488.88
2023-06-29T20:57:38.856Z,97491.34
2023-06-29T21:00:06.907Z,97490.78
2023-06-29T21:02:34.008Z,97482.06
2023-06-29T21:05:00.835Z,97477.97
2023-06-29T21:07:27.821Z,97485.66
2023-06-29T21:09:54.505Z,97478.03
2023-06-29T21:12:21.328Z,97470.88
2023-06-29T21:14:48.109Z,97481.78
2023-06-29T21:17:15.350Z,97474.72
2023-06-29T21:19:42.688Z,97481.19
2023-06-29T21:22:12.020Z,97475.22
2023-06-29T21:24:40.529Z,97477.13
2023-06-29T21:27:12.003Z,97478.22
2023-06-29T21:29:42.369Z,97485.91
2023-06-29T21:32:11.274Z,97471.09
2023-06-29T21:34:38.695Z,97476.22
2023-06-29T21:37:06.000Z,97478.06
2023-06-29T21:39:34.231Z,97481.47
2023-06-29T21:42:01.210Z,97475.22
2023-06-29T21:44:27.787Z,97475.69
2023-06-29T21:46:54.647Z,97475.69
2023-06-29T21:49:22.984Z,97475.56
2023-06-29T21:51:49.682Z,97474.19
2023-06-29T21:54:16.258Z,97477.59
2023-06-29T21:56:42.915Z,97475.75
2023-06-29T21:59:09.768Z,97474.38
2023-06-29T22:01:36.442Z,97471.81
2023-06-29T22:04:03.312Z,97467.81
2023-06-29T22:06:30.538Z,97457.13
2023-06-29T22:08:57.635Z,97466.00
2023-06-29T22:11:28.135Z,97462.16
2023-06-29T22:13:55.270Z,97460.94
2023-06-29T22:16:24.056Z,97460.50
2023-06-29T22:18:51.962Z,97468.13
2023-06-29T22:21:22.525Z,97457.72
2023-06-29T22:23:54.356Z,97462.00
2023-06-29T22:26:21.655Z,97467.34
2023-06-29T22:28:48.605Z,97468.25
2023-06-29T22:31:18.044Z,97469.19
2023-06-29T22:33:47.076Z,97469.78
2023-06-29T22:36:17.323Z,97463.69
2023-06-29T22:38:44.080Z,97462.28
2023-06-29T22:41:13.338Z,97460.00
2023-06-29T22:43:40.653Z,97452.94
2023-06-29T22:46:07.485Z,97451.56
2023-06-29T22:48:34.109Z,97458.75
2023-06-29T22:51:01.038Z,97449.41
2023-06-29T22:53:27.787Z,97436.09
2023-06-29T22:55:54.286Z,97444.81
2023-06-29T22:58:25.311Z,97446.06
2023-06-29T23:00:55.891Z,97455.22
2023-06-29T23:03:23.318Z,97447.41
2023-06-29T23:05:50.562Z,97441.16
2023-06-29T23:08:19.350Z,97445.44
2023-06-29T23:10:50.299Z,97442.69
2023-06-29T23:13:17.322Z,97450.94
2023-06-29T23:15:46.990Z,97457.66
2023-06-29T23:18:14.623Z,97450.94
2023-06-29T23:20:45.743Z,97455.66
2023-06-29T23:23:16.358Z,97453.69
2023-06-29T23:25:43.685Z,97453.38
2023-06-29T23:28:10.504Z,97436.25
2023-06-29T23:30:37.098Z,97439.78
2023-06-29T23:33:03.858Z,97433.03
2023-06-29T23:35:30.618Z,97433.81
2023-06-29T23:37:57.232Z,97433.50
2023-06-29T23:40:24.018Z,97433.19
2023-06-29T23:42:51.034Z,97424.31
2023-06-29T23:45:17.944Z,97425.53
2023-06-29T23:47:44.556Z,97424.91
2023-06-29T23:50:14.448Z,97417.91
2023-06-29T23:52:42.287Z,97417.56
2023-06-29T23:55:10.374Z,97413.72
2023-06-29T23:57:37.086Z,97411.41
